Time;durP1;ratioP1;P1;durP2;ratioP2;P2;SDS_P1;SDS_P2;PMS_P1;PMS_P2;Temp;Humidity;BMP_temperature;BMP_pressure;BME280_temperature;BME280_humidity;BME280_pressure;Samples;Min_cycle;Max_cycle;Signal;HPM_P1;HPM_P2
2022/04/27 00:01:56;;;;;;;10.65;5.97;;;;;;;11.40;79.38;98658.25;4484145;31;20096;-70
2022/04/27 00:04:25;;;;;;;10.02;5.85;;;;;;;11.30;79.72;98668.81;4486228;31;20145;-71
2022/04/27 00:06:52;;;;;;;11.52;5.80;;;;;;;11.21;82.96;98667.06;4486086;31;20114;-70
2022/04/27 00:09:19;;;;;;;10.85;5.50;;;;;;;11.16;85.50;98672.72;4486082;31;20160;-70
2022/04/27 00:11:46;;;;;;;9.48;6.12;;;;;;;11.04;88.95;98672.06;4486082;31;20119;-70
2022/04/27 00:14:13;;;;;;;8.98;5.55;;;;;;;10.93;90.89;98674.84;4486432;31;20468;-70
2022/04/27 00:16:40;;;;;;;9.77;6.30;;;;;;;10.79;91.26;98674.31;4486317;31;20104;-70
2022/04/27 00:19:08;;;;;;;9.98;5.70;;;;;;;10.75;92.10;98664.25;4486211;31;20079;-70
2022/04/27 00:21:35;;;;;;;9.20;5.37;;;;;;;10.75;89.97;98662.47;4486264;31;20111;-70
2022/04/27 00:24:02;;;;;;;9.18;5.00;;;;;;;10.74;86.69;98666.06;4486319;31;20088;-70
2022/04/27 00:26:29;;;;;;;9.15;5.28;;;;;;;10.70;89.53;98661.25;4486389;32;20116;-70
2022/04/27 00:28:56;;;;;;;9.93;5.50;;;;;;;10.71;86.42;98663.72;4486080;31;20115;-70
2022/04/27 00:31:24;;;;;;;8.93;5.15;;;;;;;10.72;85.36;98665.38;4485901;31;20096;-70
2022/04/27 00:33:52;;;;;;;6.55;4.47;;;;;;;10.71;85.31;98662.91;4486426;31;20097;-70
2022/04/27 00:36:19;;;;;;;7.28;4.95;;;;;;;10.74;85.74;98662.63;4485765;31;20093;-70
2022/04/27 00:38:46;;;;;;;9.63;5.57;;;;;;;10.81;84.64;98663.72;4485894;31;20095;-70
2022/04/27 00:41:13;;;;;;;7.85;5.12;;;;;;;10.93;82.22;98664.34;4486017;31;20164;-70
2022/04/27 00:43:42;;;;;;;9.70;5.22;;;;;;;10.88;83.26;98669.22;4486022;31;20131;-70
2022/04/27 00:46:09;;;;;;;7.45;5.00;;;;;;;10.82;85.50;98660.97;4485867;31;20084;-70
2022/04/27 00:48:39;;;;;;;7.00;4.28;;;;;;;10.72;86.16;98665.38;4485926;31;20141;-70
2022/04/27 00:51:07;;;;;;;10.13;5.37;;;;;;;10.66;85.99;98665.94;4485805;31;20438;-70
2022/04/27 00:53:34;;;;;;;10.68;5.50;;;;;;;10.62;87.83;98665.38;4486009;32;20445;-70
2022/04/27 00:56:02;;;;;;;14.00;6.03;;;;;;;10.54;92.41;98667.87;4484719;32;20572;-70
2022/04/27 00:58:30;;;;;;;10.40;6.82;;;;;;;10.37;95.60;98671.19;4486021;31;20197;-70
2022/04/27 01:01:17;;;;;;;11.57;7.00;;;;;;;10.12;98.14;98668.94;4486133;32;20108;-70
2022/04/27 01:03:44;;;;;;;13.05;7.68;;;;;;;9.99;100.00;98665.75;4486179;31;20100;-70
2022/04/27 01:06:12;;;;;;;14.18;7.57;;;;;;;9.97;99.49;98670.31;4485719;31;20171;-70
2022/04/27 01:08:40;;;;;;;14.77;7.80;;;;;;;9.86;100.00;98673.88;4484649;32;20171;-70
2022/04/27 01:11:07;;;;;;;14.48;7.78;;;;;;;9.73;100.00;98674.13;4485607;31;20092;-70
2022/04/27 01:13:34;;;;;;;15.05;8.18;;;;;;;9.70;100.00;98674.37;4485525;31;20101;-71
2022/04/27 01:16:02;;;;;;;17.67;7.47;;;;;;;9.58;100.00;98675.44;4485832;31;20171;-70
2022/04/27 01:18:29;;;;;;;16.83;8.63;;;;;;;9.41;100.00;98669.88;4485780;31;20160;-70
2022/04/27 01:20:57;;;;;;;14.35;7.80;;;;;;;9.35;100.00;98675.66;4485724;31;20153;-71
2022/04/27 01:23:24;;;;;;;14.43;8.10;;;;;;;9.31;100.00;98679.50;4485865;31;20152;-71
2022/04/27 01:25:54;;;;;;;19.67;8.88;;;;;;;9.32;100.00;98680.31;4485494;31;20088;-71
2022/04/27 01:28:26;;;;;;;15.77;8.70;;;;;;;9.28;100.00;98687.63;4485794;31;20088;-71
2022/04/27 01:30:58;;;;;;;13.70;7.97;;;;;;;9.23;100.00;98692.38;4485445;31;20122;-71
2022/04/27 01:33:26;;;;;;;16.02;8.75;;;;;;;9.27;100.00;98688.56;4485766;31;20402;-71
2022/04/27 01:35:54;;;;;;;13.98;8.15;;;;;;;9.18;100.00;98700.63;4485677;32;20379;-72
2022/04/27 01:38:21;;;;;;;13.68;7.68;;;;;;;9.08;100.00;98704.16;4485293;31;20454;-71
2022/04/27 01:40:53;;;;;;;14.90;7.85;;;;;;;9.14;100.00;98708.84;4485647;32;20548;-72
2022/04/27 01:43:24;;;;;;;16.02;8.50;;;;;;;9.09;100.00;98713.66;4485668;31;20506;-71
2022/04/27 01:45:51;;;;;;;13.90;8.05;;;;;;;9.09;100.00;98719.69;4485500;32;20570;-72
2022/04/27 01:48:19;;;;;;;16.77;8.90;;;;;;;9.15;100.00;98720.97;4485575;31;20080;-71
2022/04/27 01:50:46;;;;;;;16.42;8.43;;;;;;;9.04;100.00;98724.50;4485594;31;20096;-71
2022/04/27 01:56:01;;;;;;;15.60;9.00;;;;;;;9.11;100.00;98709.09;4485675;31;20084;-71
2022/04/27 01:58:29;;;;;;;14.30;8.10;;;;;;;9.04;100.00;98700.97;4485760;31;20088;-71
2022/04/27 02:00:56;;;;;;;18.80;8.05;;;;;;;9.00;100.00;98700.38;4485402;31;20108;-71
2022/04/27 02:03:24;;;;;;;14.85;8.52;;;;;;;9.05;100.00;98700.00;4485742;31;20120;-71
2022/04/27 02:05:56;;;;;;;15.93;9.20;;;;;;;9.05;100.00;98690.37;4485707;31;20171;-71
2022/04/27 02:08:23;;;;;;;14.52;7.87;;;;;;;9.03;100.00;98696.69;4485342;31;20068;-71
2022/04/27 02:10:51;;;;;;;20.20;8.85;;;;;;;9.08;100.00;98696.31;4485277;31;20092;-71
2022/04/27 02:13:18;;;;;;;16.92;8.50;;;;;;;9.04;100.00;98696.56;4485504;31;20100;-71
2022/04/27 02:15:45;;;;;;;22.33;9.50;;;;;;;9.04;100.00;98693.94;4485725;31;20488;-71
2022/04/27 02:18:13;;;;;;;15.13;8.73;;;;;;;9.04;100.00;98678.28;4485404;31;20100;-72
2022/04/27 02:20:42;;;;;;;15.77;8.82;;;;;;;8.96;100.00;98680.72;4485459;32;20507;-71
2022/04/27 02:23:09;;;;;;;15.98;8.65;;;;;;;9.01;100.00;98680.31;4485626;31;20431;-71
2022/04/27 02:25:37;;;;;;;13.00;8.00;;;;;;;8.93;100.00;98685.34;4485043;31;20101;-71
2022/04/27 02:28:05;;;;;;;14.25;7.93;;;;;;;8.92;100.00;98679.31;4485285;31;20492;-71
2022/04/27 02:30:32;;;;;;;14.45;8.07;;;;;;;8.91;100.00;98677.66;4485200;31;20458;-71
2022/04/27 02:33:00;;;;;;;15.15;8.40;;;;;;;8.96;100.00;98680.72;4485177;31;20795;-71
2022/04/27 02:35:27;;;;;;;16.05;8.73;;;;;;;9.00;100.00;98666.41;4485543;31;20088;-71
2022/04/27 02:37:55;;;;;;;15.00;7.60;;;;;;;8.97;100.00;98671.91;4484937;32;20100;-71
2022/04/27 02:40:22;;;;;;;16.60;8.18;;;;;;;9.01;100.00;98668.06;4485271;31;20100;-71
2022/04/27 02:42:52;;;;;;;16.02;8.63;;;;;;;9.00;100.00;98671.62;4485361;31;20104;-71
2022/04/27 02:45:19;;;;;;;15.95;7.97;;;;;;;8.99;100.00;98671.78;4485144;31;20097;-71
2022/04/27 02:47:47;;;;;;;14.75;8.82;;;;;;;8.94;100.00;98669.53;4485381;32;20087;-71
2022/04/27 02:53:00;;;;;;;16.25;8.32;;;;;;;8.86;100.00;98661.53;4485147;31;20115;-71
2022/04/27 02:55:28;;;;;;;16.52;9.30;;;;;;;8.82;100.00;98662.75;4485371;31;20144;-71
2022/04/27 02:57:56;;;;;;;16.83;9.00;;;;;;;8.80;100.00;98667.28;4485117;31;20104;-71
2022/04/27 03:00:23;;;;;;;14.93;8.70;;;;;;;8.82;100.00;98668.78;4485212;31;20458;-71
2022/04/27 03:02:51;;;;;;;16.00;8.93;;;;;;;8.79;100.00;98669.03;4485239;32;20167;-71
2022/04/27 03:05:19;;;;;;;15.38;8.77;;;;;;;8.76;100.00;98669.28;4485459;31;20153;-71
2022/04/27 03:07:46;;;;;;;22.13;8.77;;;;;;;8.83;100.00;98669.63;4484721;31;20145;-71
2022/04/27 03:10:14;;;;;;;19.37;9.63;;;;;;;8.84;100.00;98677.34;4485016;32;20171;-71
2022/04/27 03:12:41;;;;;;;20.58;9.95;;;;;;;8.81;100.00;98684.59;4484935;31;20450;-71
2022/04/27 03:15:09;;;;;;;20.05;9.48;;;;;;;8.88;100.00;98685.75;4483950;32;20116;-71
2022/04/27 03:17:36;;;;;;;16.92;8.57;;;;;;;8.94;100.00;98681.78;4483641;32;20491;-71
2022/04/27 03:20:04;;;;;;;16.92;8.02;;;;;;;9.01;100.00;98682.94;4484797;31;20129;-71
2022/04/27 03:22:32;;;;;;;13.35;8.45;;;;;;;9.03;100.00;98679.22;4484773;32;20092;-71
2022/04/27 03:25:03;;;;;;;17.98;9.00;;;;;;;9.00;100.00;98691.72;4484791;31;20092;-71
2022/04/27 03:27:30;;;;;;;15.30;8.90;;;;;;;9.03;100.00;98686.25;4484776;31;20111;-71
2022/04/27 03:29:57;;;;;;;14.77;8.15;;;;;;;9.03;100.00;98687.06;4484741;31;20130;-71
2022/04/27 03:32:24;;;;;;;14.02;8.45;;;;;;;9.04;100.00;98686.09;4484645;31;20153;-72
2022/04/27 03:34:52;;;;;;;16.20;8.32;;;;;;;9.04;100.00;98686.09;4485011;31;20091;-72
2022/04/27 03:37:22;;;;;;;15.07;7.97;;;;;;;9.05;100.00;98690.37;4483710;31;20114;-71
2022/04/27 03:39:49;;;;;;;16.17;8.07;;;;;;;9.04;100.00;98688.72;4484611;31;20580;-72
2022/04/27 03:42:17;;;;;;;14.57;7.95;;;;;;;9.03;100.00;98684.44;4484795;31;20100;-72
2022/04/27 03:44:45;;;;;;;16.10;8.00;;;;;;;9.01;100.00;98686.38;4484836;31;20449;-72
2022/04/27 03:47:12;;;;;;;15.80;8.27;;;;;;;9.06;100.00;98692.03;4484297;31;20084;-72
2022/04/27 03:49:39;;;;;;;13.05;7.47;;;;;;;9.04;100.00;98691.34;4484362;31;20084;-72
2022/04/27 03:52:07;;;;;;;15.27;7.90;;;;;;;8.98;100.00;98698.88;4484446;31;20089;-72
2022/04/27 03:54:34;;;;;;;15.75;8.60;;;;;;;9.03;100.00;98701.91;4484453;31;20096;-72
2022/04/27 03:57:02;;;;;;;14.57;8.15;;;;;;;9.02;100.00;98701.09;4484165;31;20487;-72
2022/04/27 03:59:29;;;;;;;13.52;7.70;;;;;;;9.04;100.00;98708.81;4483557;32;20370;-72
2022/04/27 04:01:56;;;;;;;15.90;8.57;;;;;;;9.00;100.00;98710.84;4483834;31;20458;-72
2022/04/27 04:04:24;;;;;;;13.80;8.05;;;;;;;9.02;100.00;98706.31;4482936;31;20119;-72
2022/04/27 04:06:52;;;;;;;17.30;8.32;;;;;;;9.04;100.00;98717.47;4483724;31;20092;-72
2022/04/27 04:09:19;;;;;;;14.85;7.82;;;;;;;8.95;100.00;98715.63;4480495;31;20104;-72
2022/04/27 04:11:47;;;;;;;14.10;8.00;;;;;;;8.98;100.00;98723.22;4482906;31;20119;-72
2022/04/27 04:14:17;;;;;;;15.30;8.60;;;;;;;8.99;100.00;98722.25;4483573;31;20089;-72
2022/04/27 04:16:44;;;;;;;15.75;8.32;;;;;;;9.04;100.00;98729.72;4479821;32;20088;-72
2022/04/27 04:19:12;;;;;;;15.73;9.00;;;;;;;9.04;100.00;98729.72;4483830;31;20085;-72
2022/04/27 04:21:40;;;;;;;14.02;7.95;;;;;;;9.03;100.00;98736.72;4470121;31;20100;-72
2022/04/27 04:24:11;;;;;;;14.52;8.75;;;;;;;9.04;100.00;98740.97;4468343;32;20093;-72
2022/04/27 04:29:26;;;;;;;16.67;8.07;;;;;;;8.96;100.00;98740.81;4483225;31;20422;-71
2022/04/27 04:31:53;;;;;;;14.65;8.13;;;;;;;9.03;100.00;98741.94;4482519;31;20108;-72
2022/04/27 04:34:21;;;;;;;12.77;8.25;;;;;;;9.04;100.00;98738.38;4472803;32;20124;-72
2022/04/27 04:36:48;;;;;;;13.27;7.62;;;;;;;9.02;100.00;98748.12;4468630;31;20152;-72
2022/04/27 04:39:16;;;;;;;14.75;8.80;;;;;;;9.08;100.00;98748.56;4467978;32;20104;-72
2022/04/27 04:41:44;;;;;;;12.57;7.55;;;;;;;9.11;100.00;98743.09;4483073;32;20157;-72
2022/04/27 04:44:11;;;;;;;16.30;9.00;;;;;;;9.16;100.00;98749.59;4483707;31;20130;-72
2022/04/27 04:46:41;;;;;;;13.75;8.65;;;;;;;9.17;100.00;98756.44;4483675;31;20104;-72
2022/04/27 04:49:11;;;;;;;13.62;8.27;;;;;;;9.13;100.00;98751.59;4471076;31;20489;-72
2022/04/27 04:51:39;;;;;;;14.82;8.60;;;;;;;9.19;100.00;98751.94;4470364;32;20131;-72
2022/04/27 04:54:07;;;;;;;16.50;8.73;;;;;;;9.22;100.00;98753.47;4469987;32;20118;-72
2022/04/27 04:56:34;;;;;;;17.08;8.63;;;;;;;9.18;100.00;98746.84;4471042;32;20540;-72
2022/04/27 04:59:01;;;;;;;15.18;8.25;;;;;;;9.31;100.00;98750.09;4474571;32;20103;-72
2022/04/27 05:01:29;;;;;;;13.62;7.80;;;;;;;9.35;100.00;98751.47;4483196;31;20119;-72
2022/04/27 05:03:57;;;;;;;17.17;8.70;;;;;;;9.44;100.00;98749.03;4481423;31;20080;-72
2022/04/27 05:06:32;;;;;;;14.90;7.82;;;;;;;9.48;100.00;98750.41;4483260;32;20092;-73
2022/04/27 05:08:59;;;;;;;13.00;7.55;;;;;;;9.65;100.00;98760.28;4477577;32;20131;-72
2022/04/27 05:11:26;;;;;;;12.40;7.72;;;;;;;9.86;100.00;98762.84;4480393;32;20088;-72
2022/04/27 05:13:54;;;;;;;16.92;7.75;;;;;;;9.92;100.00;98771.97;4475559;32;20123;-72
2022/04/27 05:16:26;;;;;;;11.60;7.55;;;;;;;10.04;100.00;98770.88;4475545;31;20442;-72
2022/04/27 05:18:53;;;;;;;11.38;7.12;;;;;;;10.31;100.00;98782.53;4484976;31;20104;-72
2022/04/27 05:21:21;;;;;;;14.57;8.45;;;;;;;10.55;100.00;98781.34;4480089;32;20439;-72
2022/04/27 05:23:49;;;;;;;12.73;7.57;;;;;;;10.80;100.00;98783.41;4472034;32;20092;-72
2022/04/27 05:26:16;;;;;;;12.77;6.82;;;;;;;11.08;100.00;98783.56;4475506;32;20104;-72
2022/04/27 05:34:18;;;;;;;11.65;6.30;;;;;;;11.60;94.85;98784.97;4474489;32;20105;-73
2022/04/27 05:36:46;;;;;;;14.02;6.97;;;;;;;11.75;94.11;98788.78;4484233;31;20106;-73
2022/04/27 05:39:14;;;;;;;12.85;7.18;;;;;;;11.77;92.99;98796.50;4484687;31;20100;-72
2022/04/27 05:41:42;;;;;;;10.43;6.55;;;;;;;11.83;93.25;98795.91;4484240;31;20160;-73
2022/04/27 05:44:12;;;;;;;10.88;6.90;;;;;;;12.08;93.64;98797.06;4484776;31;20509;-72
2022/04/27 05:46:39;;;;;;;10.85;6.62;;;;;;;12.34;91.58;98799.00;4485637;31;20140;-73
2022/04/27 05:49:07;;;;;;;11.35;6.62;;;;;;;12.46;89.32;98794.38;4483796;32;20134;-73
2022/04/27 05:51:36;;;;;;;12.07;7.47;;;;;;;12.37;88.29;98801.31;4480226;31;20105;-73
2022/04/27 05:54:03;;;;;;;10.75;6.45;;;;;;;12.12;89.96;98806.31;4485357;31;20876;-73
2022/04/27 05:56:33;;;;;;;10.50;6.68;;;;;;;12.08;88.49;98804.94;4483723;31;20357;-73
2022/04/27 05:59:01;;;;;;;10.15;6.80;;;;;;;12.20;89.29;98810.81;4478173;31;20157;-73
2022/04/27 06:01:31;;;;;;;10.52;7.15;;;;;;;12.14;87.80;98811.41;4477443;31;20681;-73
2022/04/27 06:03:58;;;;;;;9.30;6.47;;;;;;;12.13;88.36;98813.22;4475264;31;109356;-72
2022/04/27 06:06:27;;;;;;;11.73;7.07;;;;;;;11.94;87.83;98813.31;4478382;31;20159;-72
2022/04/27 06:08:54;;;;;;;11.15;6.75;;;;;;;12.25;88.12;98816.50;4474059;31;20476;-72
2022/04/27 06:11:22;;;;;;;15.88;7.10;;;;;;;12.16;86.06;98825.25;4477286;31;20092;-72
2022/04/27 06:13:51;;;;;;;11.75;6.68;;;;;;;12.25;86.46;98822.56;4473355;32;20120;-74
2022/04/27 06:16:22;;;;;;;12.15;6.03;;;;;;;12.41;85.34;98827.19;4471218;32;20126;-72
2022/04/27 06:18:50;;;;;;;11.45;7.30;;;;;;;12.53;84.64;98835.66;4482920;31;20095;-73
2022/04/27 06:21:17;;;;;;;12.13;6.90;;;;;;;12.45;85.35;98832.97;4482843;31;20084;-72
2022/04/27 06:23:45;;;;;;;14.60;7.87;;;;;;;12.38;84.24;98837.13;4469460;32;20186;-73
2022/04/27 06:26:13;;;;;;;14.13;8.93;;;;;;;12.22;90.20;98843.03;4482303;31;20097;-73
2022/04/27 06:28:41;;;;;;;14.98;8.80;;;;;;;12.01;95.81;98838.03;4475940;32;20127;-73
2022/04/27 06:31:09;;;;;;;17.75;9.25;;;;;;;11.83;96.34;98838.72;4482502;31;20447;-72
2022/04/27 06:33:36;;;;;;;16.80;9.27;;;;;;;11.63;96.28;98831.91;4480983;32;20112;-74
2022/04/27 06:36:05;;;;;;;14.93;8.15;;;;;;;11.47;98.99;98849.03;4475824;32;20107;-73
2022/04/27 06:38:32;;;;;;;12.90;8.50;;;;;;;11.00;99.49;98841.06;4476861;32;20459;-75
2022/04/27 06:41:06;;;;;;;;;;;;;;;11.23;100.00;98844.25;4482998;32;20164;-74
2022/04/27 06:43:40;;;;;;;20.67;9.30;;;;;;;11.04;100.00;98847.72;4484228;32;20035;-74
2022/04/27 06:46:20;;;;;;;17.83;9.70;;;;;;;11.06;100.00;98851.00;4482983;31;20092;-75
2022/04/27 06:49:02;;;;;;;14.70;8.90;;;;;;;11.01;100.00;98854.06;4482335;31;20164;-73
2022/04/27 06:51:44;;;;;;;14.63;9.35;;;;;;;11.07;100.00;98850.06;4477310;32;20169;-75
2022/04/27 06:54:13;;;;;;;14.82;9.25;;;;;;;11.10;100.00;98856.81;4474879;32;20105;-73
2022/04/27 06:56:52;;;;;;;20.50;11.30;;;;;;;11.36;100.00;98857.06;4481014;31;20096;-72
2022/04/27 06:59:20;;;;;;;16.95;11.18;;;;;;;11.45;100.00;98853.59;4479231;31;20143;-75
2022/04/27 07:01:49;;;;;;;17.87;11.52;;;;;;;11.38;100.00;98855.13;4482062;32;20164;-72
2022/04/27 07:04:17;;;;;;;18.75;11.65;;;;;;;11.39;100.00;98856.78;4470314;31;20489;-73
2022/04/27 07:06:44;;;;;;;17.83;11.10;;;;;;;11.47;100.00;98856.09;4479926;32;20149;-73
2022/04/27 07:09:11;;;;;;;23.80;10.50;;;;;;;11.84;100.00;98860.53;4478884;31;20085;-73
2022/04/27 07:11:41;;;;;;;18.65;11.27;;;;;;;11.98;98.67;98856.69;4479621;31;20107;-73
2022/04/27 07:14:10;;;;;;;15.48;10.13;;;;;;;12.14;98.04;98861.31;4481340;31;20149;-73
2022/04/27 07:16:37;;;;;;;15.65;9.43;;;;;;;12.30;94.76;98865.94;4480710;31;20115;-74
2022/04/27 07:19:04;;;;;;;17.50;9.93;;;;;;;12.14;91.07;98863.94;4481571;31;20564;-72
2022/04/27 07:21:32;;;;;;;18.77;9.15;;;;;;;12.23;95.92;98871.78;4481474;32;20114;-73
2022/04/27 07:24:02;;;;;;;17.10;9.15;;;;;;;12.36;90.80;98875.88;4481785;31;20118;-73
2022/04/27 07:26:29;;;;;;;19.20;9.75;;;;;;;12.52;91.00;98869.97;4479820;32;20164;-73
2022/04/27 07:28:57;;;;;;;15.82;10.32;;;;;;;12.66;90.96;98876.56;4471628;32;21087;-73
2022/04/27 07:31:24;;;;;;;16.80;10.20;;;;;;;12.58;90.67;98885.16;4468332;32;20115;-72
2022/04/27 07:33:52;;;;;;;15.13;9.60;;;;;;;12.59;91.49;98881.56;4472324;32;20155;-71
2022/04/27 07:36:19;;;;;;;16.08;10.07;;;;;;;12.68;89.93;98883.28;4478972;32;20131;-73
2022/04/27 07:38:47;;;;;;;17.80;11.23;;;;;;;12.96;89.24;98884.09;4479795;31;20095;-73
2022/04/27 07:41:14;;;;;;;19.85;11.35;;;;;;;13.01;91.40;98882.81;4482443;31;20104;-74
2022/04/27 07:43:42;;;;;;;17.05;10.63;;;;;;;13.03;88.28;98888.75;4480727;31;20088;-74
2022/04/27 07:46:11;;;;;;;16.92;10.73;;;;;;;12.82;88.60;98887.22;4479865;32;20123;-74
2022/04/27 07:48:38;;;;;;;18.00;11.55;;;;;;;12.92;88.78;98889.78;4479992;32;20108;-74
2022/04/27 07:51:06;;;;;;;17.15;10.93;;;;;;;13.13;87.73;98895.56;4472957;31;20465;-73
2022/04/27 07:53:33;;;;;;;18.77;10.15;;;;;;;13.03;85.03;98891.38;4478653;32;20152;-74
2022/04/27 07:56:01;;;;;;;15.25;9.73;;;;;;;13.57;83.55;98897.47;4479865;31;20115;-72
2022/04/27 07:58:28;;;;;;;19.35;10.55;;;;;;;13.69;82.09;98889.28;4477129;32;20575;-73
2022/04/27 08:00:57;;;;;;;14.60;9.43;;;;;;;14.17;82.13;98891.41;4484742;31;20465;-72
2022/04/27 08:03:25;;;;;;;16.08;9.98;;;;;;;14.37;80.34;98889.34;4483584;32;20122;-74
2022/04/27 08:05:52;;;;;;;16.20;9.88;;;;;;;14.46;77.71;98889.38;4479103;31;20088;-73
2022/04/27 08:08:19;;;;;;;15.77;8.65;;;;;;;14.46;78.19;98884.09;4477070;31;20099;-74
2022/04/27 08:10:54;;;;;;;13.27;8.00;;;;;;;14.59;76.53;98892.41;4481713;31;20547;-74
2022/04/27 08:13:21;;;;;;;14.90;8.48;;;;;;;15.20;71.47;98893.06;4476048;31;20104;-73
2022/04/27 08:15:48;;;;;;;12.55;8.20;;;;;;;15.60;67.34;98898.50;4477328;31;20126;-72
2022/04/27 08:18:16;;;;;;;12.98;9.05;;;;;;;15.79;68.08;98905.25;4478903;32;20150;-74
2022/04/27 08:23:32;;;;;;;17.85;9.77;;;;;;;15.59;67.15;98910.91;4480551;31;20505;-74
2022/04/27 08:26:04;;;;;;;15.15;9.45;;;;;;;16.25;68.04;98907.34;4479886;32;20477;-74
2022/04/27 08:28:32;;;;;;;15.05;9.63;;;;;;;15.77;71.13;98918.66;4483693;32;20377;-73
2022/04/27 08:31:00;;;;;;;16.77;10.35;;;;;;;15.67;72.60;98915.34;4480608;31;20581;-74
2022/04/27 08:33:27;;;;;;;15.98;10.38;;;;;;;15.30;74.18;98914.00;4479702;32;20101;-73
2022/04/27 08:35:57;;;;;;;18.60;11.23;;;;;;;14.98;76.25;98918.25;4477695;32;20116;-73
2022/04/27 08:38:44;;;;;;;16.55;9.93;;;;;;;14.38;77.99;98913.91;4478533;32;20127;-73
2022/04/27 08:41:12;;;;;;;17.20;10.82;;;;;;;14.72;76.79;98921.81;4483600;32;20147;-73
2022/04/27 08:43:39;;;;;;;15.70;10.50;;;;;;;14.62;78.00;98918.47;4480133;32;20877;-73
2022/04/27 08:46:08;;;;;;;17.95;11.32;;;;;;;14.75;78.29;98912.75;4484999;31;20115;-73
2022/04/27 08:48:36;;;;;;;15.60;10.32;;;;;;;14.70;75.84;98913.25;4481431;31;20159;-73
2022/04/27 08:51:04;;;;;;;16.17;11.02;;;;;;;14.70;76.54;98910.59;4482590;31;20437;-74
2022/04/27 08:53:33;;;;;;;14.75;9.50;;;;;;;14.60;78.87;98909.88;4475997;32;20526;-73
2022/04/27 08:56:01;;;;;;;16.83;10.25;;;;;;;14.80;77.04;98907.00;4482064;32;20143;-73
2022/04/27 08:58:28;;;;;;;15.00;9.85;;;;;;;15.07;75.08;98906.72;4476586;31;20161;-73
2022/04/27 09:01:12;;;;;;;16.40;10.50;;;;;;;15.12;74.71;98908.06;4477527;32;20141;-71
2022/04/27 09:03:40;;;;;;;17.55;10.63;;;;;;;15.53;72.46;98908.88;4479356;32;20104;-73
2022/04/27 09:06:13;;;;;;;18.15;10.90;;;;;;;15.97;71.40;98907.72;4479221;31;20140;-71
2022/04/27 09:08:46;;;;;;;14.43;10.40;;;;;;;16.22;67.77;98911.13;4482840;32;20149;-72
2022/04/27 09:11:33;;;;;;;17.20;9.93;;;;;;;16.25;68.90;98904.69;4482135;31;20226;-70
2022/04/27 09:14:02;;;;;;;15.98;11.38;;;;;;;16.40;70.56;98905.63;4478608;31;20127;-73
2022/04/27 09:22:11;;;;;;;16.73;10.27;;;;;;;15.69;70.68;98915.19;4476640;32;20111;-73
2022/04/27 09:24:51;;;;;;;15.82;11.60;;;;;;;15.59;72.12;98912.69;4477842;32;20517;-73
2022/04/27 09:27:20;;;;;;;14.68;10.50;;;;;;;15.39;73.39;98920.13;4482254;32;20084;-73
2022/04/27 09:30:11;;;;;;;16.80;10.85;;;;;;;15.06;74.42;98913.00;4475503;31;20651;-73
2022/04/27 09:32:50;;;;;;;18.98;11.20;;;;;;;14.97;74.64;98911.31;4480923;32;20484;-73
2022/04/27 09:35:34;;;;;;;19.52;11.12;;;;;;;15.12;74.57;98913.34;4477598;32;20087;-74
2022/04/27 09:38:12;;;;;;;;;;;;;;;15.55;71.91;98911.41;4482758;32;20097;-73
2022/04/27 09:40:48;;;;;;;19.15;11.50;;;;;;;15.96;69.07;98906.09;4480648;31;19999;-74
2022/04/27 09:43:15;;;;;;;16.20;11.05;;;;;;;15.65;70.10;98919.13;4484704;31;20092;-74
2022/04/27 09:45:43;;;;;;;15.00;10.18;;;;;;;15.49;72.53;98907.59;4482244;31;20141;-74
2022/04/27 09:48:19;;;;;;;19.42;11.07;;;;;;;15.43;72.80;98914.34;4479024;32;20135;-74
2022/04/27 09:50:50;;;;;;;15.52;10.52;;;;;;;15.46;71.79;98909.72;4484035;32;20107;-74
2022/04/27 09:53:18;;;;;;;18.52;11.43;;;;;;;15.78;71.60;98914.19;4482023;31;20856;-74
2022/04/27 09:55:51;;;;;;;15.60;10.20;;;;;;;15.36;74.15;98915.16;4484697;31;20465;-74
2022/04/27 09:58:22;;;;;;;19.00;12.33;;;;;;;15.34;75.33;98912.69;4481619;32;20149;-74
2022/04/27 10:00:49;;;;;;;17.10;11.18;;;;;;;15.06;77.38;98914.81;4481826;32;20176;-74
2022/04/27 10:03:20;;;;;;;17.08;11.25;;;;;;;14.99;77.58;98919.91;4485972;31;20453;-76
2022/04/27 10:05:48;;;;;;;18.87;11.85;;;;;;;14.79;82.12;98918.53;4482386;31;20092;-74
2022/04/27 10:08:15;;;;;;;17.92;12.18;;;;;;;14.58;83.34;98917.13;4481259;31;20108;-72
2022/04/27 10:10:45;;;;;;;19.58;12.13;;;;;;;14.32;86.25;98919.81;4474493;32;20088;-73
2022/04/27 10:13:15;;;;;;;18.98;11.57;;;;;;;14.23;87.86;98928.66;4478085;31;20537;-72
2022/04/27 10:15:44;;;;;;;18.02;11.38;;;;;;;14.17;87.17;98920.41;4482350;31;20635;-74
2022/04/27 10:18:14;;;;;;;17.35;11.55;;;;;;;14.07;88.50;98922.31;4480248;31;20092;-75
2022/04/27 10:20:42;;;;;;;18.75;12.15;;;;;;;13.73;88.27;98927.50;4479627;32;20153;-74
2022/04/27 10:23:19;;;;;;;19.50;13.07;;;;;;;13.53;90.16;98929.50;4477351;31;20172;-77
2022/04/27 10:26:12;;;;;;;18.85;12.13;;;;;;;13.50;90.88;98930.62;4486312;31;20092;-74
2022/04/27 10:29:01;;;;;;;22.58;12.73;;;;;;;13.55;90.87;98940.69;4476706;32;21849;-76
2022/04/27 10:31:40;;;;;;;19.55;12.45;;;;;;;13.20;91.33;98927.37;4474484;32;20085;-74
2022/04/27 10:34:26;;;;;;;19.00;12.20;;;;;;;13.04;91.08;98937.75;4480008;32;20475;-74
2022/04/27 10:36:57;;;;;;;20.45;12.27;;;;;;;12.84;92.26;98939.66;4478108;32;20092;-73
2022/04/27 10:39:32;;;;;;;22.48;13.55;;;;;;;12.76;95.04;98929.88;4474899;32;20465;-73
2022/04/27 10:42:03;;;;;;;20.30;12.32;;;;;;;12.64;97.65;98936.31;4478356;32;20164;-73
2022/04/27 10:44:53;;;;;;;21.67;13.52;;;;;;;12.43;97.47;98937.38;4478227;32;20161;-73
2022/04/27 10:47:22;;;;;;;21.33;13.07;;;;;;;12.24;99.49;98930.41;4484261;31;20104;-74
2022/04/27 10:50:13;;;;;;;22.05;13.55;;;;;;;12.21;99.13;98934.13;4478866;32;20080;-73
2022/04/27 10:52:55;;;;;;;25.50;14.60;;;;;;;12.30;100.00;98937.69;4477494;31;20118;-73
2022/04/27 10:55:45;;;;;;;23.73;13.77;;;;;;;12.13;100.00;98944.53;4484234;31;20121;-73
2022/04/27 10:58:21;;;;;;;20.90;13.57;;;;;;;12.38;100.00;98942.22;4482178;31;20110;-72
2022/04/27 11:00:58;;;;;;;18.33;11.77;;;;;;;12.47;100.00;98941.34;4476859;31;20139;-73
2022/04/27 11:03:26;;;;;;;24.40;13.82;;;;;;;12.20;100.00;98935.13;4477144;32;20096;-73
2022/04/27 11:06:08;;;;;;;24.08;14.05;;;;;;;12.32;100.00;98943.63;4467445;32;20111;-73
2022/04/27 11:08:39;;;;;;;21.55;13.32;;;;;;;12.27;100.00;98943.25;4472925;32;20529;-73
2022/04/27 11:11:08;;;;;;;22.60;13.98;;;;;;;12.22;100.00;98937.59;4478431;32;20107;-72
2022/04/27 11:13:37;;;;;;;24.90;14.27;;;;;;;12.15;100.00;98947.00;4476783;31;20104;-72
2022/04/27 11:16:14;;;;;;;24.30;14.45;;;;;;;12.16;100.00;98938.19;4478528;32;20501;-72
2022/04/27 11:18:52;;;;;;;22.30;13.77;;;;;;;12.17;100.00;98945.91;4468100;32;20151;-72
2022/04/27 11:21:20;;;;;;;24.08;13.98;;;;;;;12.13;100.00;98943.72;4473063;31;20119;-72
2022/04/27 11:23:48;;;;;;;23.15;13.90;;;;;;;12.07;100.00;98940.66;4473976;32;20100;-73
2022/04/27 11:26:15;;;;;;;25.65;14.38;;;;;;;11.83;100.00;98954.22;4478299;32;20118;-72
2022/04/27 11:28:43;;;;;;;22.92;13.80;;;;;;;11.75;100.00;98946.25;4479513;31;20115;-73
2022/04/27 11:31:12;;;;;;;25.62;14.05;;;;;;;11.69;100.00;98941.56;4476220;32;20084;-73
2022/04/27 11:33:40;;;;;;;24.63;13.02;;;;;;;11.68;100.00;98945.94;4478145;31;20088;-72
2022/04/27 11:36:19;;;;;;;34.28;12.55;;;;;;;11.68;100.00;98942.50;4482889;31;20575;-72
2022/04/27 11:38:47;;;;;;;22.77;13.30;;;;;;;11.50;100.00;98947.63;4481148;32;20824;-72
2022/04/27 11:41:19;;;;;;;22.23;12.55;;;;;;;11.53;100.00;98952.59;4478631;31;20084;-72
2022/04/27 11:43:49;;;;;;;19.33;12.23;;;;;;;11.48;100.00;98945.16;4474914;32;20163;-72
2022/04/27 11:46:17;;;;;;;22.85;13.45;;;;;;;11.47;100.00;98950.53;4481999;31;20100;-73
2022/04/27 11:48:48;;;;;;;22.50;12.52;;;;;;;11.57;100.00;98953.12;4463055;32;20092;-73
2022/04/27 11:51:15;;;;;;;23.58;13.07;;;;;;;11.57;100.00;98955.75;4475339;31;20146;-73
2022/04/27 11:53:49;;;;;;;25.12;13.77;;;;;;;11.40;100.00;98959.91;4479246;31;20123;-72
2022/04/27 11:56:18;;;;;;;24.65;14.07;;;;;;;11.38;100.00;98954.81;4472837;32;20100;-73